Huvudsida
METAR-TAF:

METAR-TAF

Flygplatser :

Moss flygplats. Rygge

Rygge, Norge

latitud: 59-23N, longitud: 010-47E, höjd: 5 m

Aktuellt väderrapport

Denna rapport gjordes för 16 minuter sedan, klockan 22:50 UTC
Vind 3 kt från ost/nordost
Temperatur -4°C
Fuktighet 86%
Tryck 1010 hPa
Sikt 10 km eller mer
Mulet på en höjd av 3900 ft

METAR: ENRY 232250Z 06003KT 9999 OVC039 M04/M06 Q1010

Tid: 00:06 (23:06 UTC)

Väderprognos

Prognos gäller från 23 kl. 18 UTC till 24 kl. 18 UTC
Vind 5 kt från ost/sydost
Sikt 10 km eller mer
Få moln på en höjd av 1000 ft
Brutna moln på en höjd av 4000 ft
Temporärt
från 24 kl. 00 UTC till 24 kl. 18 UTC
Sikt: 2000 m
på en höjd av 1200 ft
lätt snö

TAF: ENRY 2318/2418 12005KT 9999 FEW010 BKN040 TEMPO 2400/2418 2000 -SN VV012

Aktuella väderrapporter och prognoser från 4000 flygplatser (METAR- och TAF-rapporter).

De tillgängliga stationerna syns som gula och röda prickar på kartan.

För musen över prickarna för att se namnen på stationerna.

Klicka sedan för att få väderrapporter och prognoser.

För att ändra kartan: Klicka på de gröna knapparna med ett svart kors på för att zooma in; den gröna knappen med ett streck på för att zooma ut; eller på de gröna pilarna för angränsande kartor.


METAR-TAF: